Terminal Aerodrome Forecast
Issued by NWS Sterling, VA

Current Version | Previous Version | Graphics & Text | Print | Product List | Glossary On
Versions: 1 2 3 4 5 6 7 8 9 10 11 12 13 14 15 16 17 18 19 20 21 22
000
FTUS41 KLWX 211742 AAB
TAFIAD
TAF AMD
KIAD 211742Z 2118/2224 20013G20KT P6SM BKN250
     FM220000 20010KT P6SM FEW250
     FM220700 23006KT 4SM -SHRA BR BKN050
     FM220900 25005KT 4SM -SHRA BR BKN015
     FM221200 32008KT P6SM BKN035
     FM221600 33015G22KT P6SM FEW250
     FM222300 33009KT P6SM FEW250=

USA.gov is the U.S. government's official web portal to all federal, state and local government web resources and services.